General Rodriguez, Argentina
Current Conditions -  °F | °C
As of 2:00 PM on Thursday 27 Nov 2014 (Local Time) from SADF Reporting Station
Clear Clear  
Wind Chill: 26°   Ceiling: Unl
Heat Index: 26°   Visibility: 6mi
Dew Point:   Wind: 8mph
Humidity: 34%   Direction: 50°NE
Pressure: 30"   Gusts: NA
Location:  34.6°S, 58.95°W
Report Text: SADF 271700Z 05007KT 360V110 CAVOK 26/09 Q1016
Loading
Personal Weather Stations






























Interactive Weather Map New forecast layout! Learn more

10-Day Weather Forecast

Advertisements
Track Severe Weather on mobile